createdAt,value
2023-10-01T00:00:44.959Z,9.65
2023-10-01T00:05:49.899Z,9.98
2023-10-01T00:10:53.210Z,10.10
2023-10-01T00:15:56.542Z,9.60
2023-10-01T00:21:00.981Z,11.20
2023-10-01T00:26:03.987Z,10.57
2023-10-01T00:31:07.436Z,10.10
2023-10-01T00:36:11.848Z,12.23
2023-10-01T00:41:14.795Z,10.85
2023-10-01T00:46:19.509Z,8.48
2023-10-01T00:51:24.210Z,10.23
2023-10-01T00:56:27.585Z,9.85
2023-10-01T01:01:30.634Z,9.43
2023-10-01T01:06:38.145Z,9.90
2023-10-01T01:11:41.980Z,8.73
2023-10-01T01:16:46.696Z,8.85
2023-10-01T01:21:51.792Z,10.63
2023-10-01T01:27:01.593Z,10.30
2023-10-01T01:32:14.879Z,10.35
2023-10-01T01:37:31.687Z,10.07
2023-10-01T01:42:36.136Z,11.55
2023-10-01T01:47:39.442Z,9.10
2023-10-01T01:52:43.833Z,10.40
2023-10-01T01:58:03.377Z,11.43
2023-10-01T02:03:13.752Z,10.38
2023-10-01T02:08:25.732Z,9.43
2023-10-01T02:13:31.051Z,9.98
2023-10-01T02:18:33.940Z,7.63
2023-10-01T02:23:37.602Z,8.20
2023-10-01T02:28:41.833Z,9.93
2023-10-01T02:33:56.872Z,11.07
2023-10-01T02:38:59.985Z,8.55
2023-10-01T02:44:04.506Z,9.35
2023-10-01T02:49:14.091Z,10.52
2023-10-01T02:54:20.151Z,8.05
2023-10-01T02:59:24.629Z,8.80
2023-10-01T03:04:28.829Z,8.63
2023-10-01T03:09:35.708Z,9.95
2023-10-01T03:14:44.553Z,9.50
2023-10-01T03:19:53.449Z,9.30
2023-10-01T03:24:59.581Z,9.38
2023-10-01T03:30:19.931Z,11.27
2023-10-01T03:35:23.035Z,9.77
2023-10-01T03:40:28.969Z,10.40
2023-10-01T03:45:40.737Z,9.02
2023-10-01T03:50:48.176Z,11.38
2023-10-01T03:55:56.148Z,9.90
2023-10-01T04:01:16.500Z,10.15
2023-10-01T04:06:22.516Z,9.23
2023-10-01T04:11:42.971Z,8.98
2023-10-01T04:16:49.149Z,9.43
2023-10-01T04:21:52.474Z,9.05
2023-10-01T04:26:55.707Z,6.93
2023-10-01T04:32:02.357Z,8.50
2023-10-01T04:37:05.333Z,9.93
2023-10-01T04:42:10.679Z,8.48
2023-10-01T04:47:32.215Z,8.85
2023-10-01T04:52:35.244Z,7.80
2023-10-01T04:57:40.056Z,8.52
2023-10-01T05:02:47.337Z,10.40
2023-10-01T05:07:51.808Z,8.18
2023-10-01T05:12:59.610Z,9.98
2023-10-01T05:18:05.879Z,10.32
2023-10-01T05:23:08.810Z,9.10
2023-10-01T05:28:24.608Z,8.80
2023-10-01T05:33:29.583Z,8.82
2023-10-01T05:38:35.126Z,9.07
2023-10-01T05:43:39.174Z,11.40
2023-10-01T05:48:44.416Z,7.57
2023-10-01T05:53:49.625Z,9.85
2023-10-01T05:58:53.860Z,8.32
2023-10-01T06:04:00.376Z,10.20
2023-10-01T06:09:05.576Z,11.75
2023-10-01T06:14:10.335Z,10.13
2023-10-01T06:19:15.330Z,9.40
2023-10-01T06:24:18.320Z,8.27
2023-10-01T06:29:23.352Z,7.70
2023-10-01T06:34:30.743Z,8.68
2023-10-01T06:39:36.755Z,9.00
2023-10-01T06:44:40.930Z,8.82
2023-10-01T06:49:58.270Z,11.43
2023-10-01T06:55:02.558Z,10.80
2023-10-01T07:00:19.013Z,8.70
2023-10-01T07:05:23.576Z,7.35
2023-10-01T07:10:27.348Z,6.90
2023-10-01T07:15:33.518Z,10.02
2023-10-01T07:20:40.519Z,7.88
2023-10-01T07:25:45.044Z,10.13
2023-10-01T07:30:52.893Z,7.75
2023-10-01T07:36:03.606Z,9.60
2023-10-01T07:41:12.446Z,10.38
2023-10-01T07:46:15.989Z,9.00
2023-10-01T07:51:27.665Z,8.57
2023-10-01T07:56:30.872Z,8.45
2023-10-01T08:01:38.347Z,10.80
2023-10-01T08:06:44.718Z,8.07
2023-10-01T08:12:07.394Z,8.82
2023-10-01T08:17:10.721Z,11.55
2023-10-01T08:22:16.949Z,9.73
2023-10-01T08:27:32.915Z,10.10
2023-10-01T08:32:40.158Z,9.57
2023-10-01T08:37:50.628Z,10.05
2023-10-01T08:42:54.741Z,10.10
2023-10-01T08:48:01.130Z,12.98
2023-10-01T08:53:12.205Z,12.15
2023-10-01T08:58:17.121Z,12.68
2023-10-01T09:03:30.484Z,11.00
2023-10-01T09:08:44.687Z,11.50
2023-10-01T09:13:49.994Z,10.48
2023-10-01T09:19:26.319Z,12.05
2023-10-01T09:24:39.879Z,16.85
2023-10-01T09:29:45.898Z,16.98
2023-10-01T09:34:59.306Z,13.50
2023-10-01T09:40:06.932Z,15.23
2023-10-01T09:45:25.737Z,11.93
2023-10-01T09:50:29.765Z,13.50
2023-10-01T09:55:36.986Z,17.42
2023-10-01T10:00:41.882Z,13.55
2023-10-01T10:05:47.659Z,19.55
2023-10-01T10:10:56.583Z,17.27
2023-10-01T10:16:01.407Z,15.55
2023-10-01T10:21:05.634Z,15.55
2023-10-01T10:26:14.573Z,23.25
2023-10-01T10:31:32.900Z,18.55
2023-10-01T10:36:37.032Z,19.85
2023-10-01T10:42:29.400Z,20.58
2023-10-01T10:48:00.787Z,22.65
2023-10-01T10:53:15.955Z,21.65
2023-10-01T10:58:21.059Z,16.75
2023-10-01T11:03:42.096Z,18.10
2023-10-01T11:08:54.717Z,22.85
2023-10-01T11:14:04.647Z,21.38
2023-10-01T11:19:17.964Z,19.13
2023-10-01T11:24:22.761Z,16.00
2023-10-01T11:29:25.694Z,16.98
2023-10-01T11:34:44.631Z,15.55
2023-10-01T11:39:53.638Z,21.20
2023-10-01T11:44:56.749Z,22.30
2023-10-01T11:50:10.323Z,19.70
2023-10-01T11:55:21.323Z,17.88
2023-10-01T12:00:53.599Z,17.33
2023-10-01T12:05:58.475Z,15.82
2023-10-01T12:11:21.390Z,16.02
2023-10-01T12:16:30.979Z,14.48
2023-10-01T12:21:35.467Z,14.05
2023-10-01T12:26:39.921Z,17.50
2023-10-01T12:31:45.865Z,15.27
2023-10-01T12:36:52.393Z,15.07
2023-10-01T12:41:58.745Z,14.02
2023-10-01T12:47:03.650Z,15.82
2023-10-01T12:52:10.228Z,13.80
2023-10-01T12:57:14.568Z,13.85
2023-10-01T13:02:30.229Z,13.57
2023-10-01T13:07:37.344Z,15.35
2023-10-01T13:12:54.843Z,15.60
2023-10-01T13:18:02.747Z,15.73
2023-10-01T13:23:08.891Z,14.82
2023-10-01T13:28:19.139Z,12.60
2023-10-01T13:33:24.387Z,14.60
2023-10-01T13:38:56.888Z,16.95
2023-10-01T13:44:17.459Z,13.50
2023-10-01T13:49:37.838Z,14.60
2023-10-01T13:54:59.550Z,16.05
2023-10-01T14:00:19.881Z,14.40
2023-10-01T14:05:40.256Z,15.98
2023-10-01T14:10:51.568Z,13.88
2023-10-01T14:15:54.517Z,13.57
2023-10-01T14:20:57.421Z,13.30
2023-10-01T14:26:11.281Z,11.55
2023-10-01T14:31:15.563Z,15.32
2023-10-01T14:36:21.518Z,10.43
2023-10-01T14:41:30.095Z,12.25
2023-10-01T14:46:35.148Z,11.07
2023-10-01T14:51:49.243Z,11.93
2023-10-01T14:56:57.453Z,11.13
2023-10-01T15:02:01.205Z,11.38
2023-10-01T15:07:06.897Z,11.90
2023-10-01T15:12:37.940Z,13.05
2023-10-01T15:17:47.536Z,14.48
2023-10-01T15:22:50.600Z,11.90
2023-10-01T15:27:55.185Z,11.45
2023-10-01T15:33:01.781Z,14.27
2023-10-01T15:38:05.437Z,14.65
2023-10-01T15:43:09.702Z,11.48
2023-10-01T15:48:16.688Z,13.05
2023-10-01T15:53:19.973Z,18.15
2023-10-01T15:58:26.328Z,16.88
2023-10-01T16:03:32.364Z,14.25
2023-10-01T16:08:36.980Z,13.80
2023-10-01T16:13:41.314Z,13.13
2023-10-01T16:18:48.367Z,14.80
2023-10-01T16:23:53.698Z,39.85
2023-10-01T16:29:00.109Z,34.92
2023-10-01T16:34:04.084Z,36.78
2023-10-01T16:39:14.185Z,36.03
2023-10-01T16:44:18.540Z,39.00
2023-10-01T16:49:21.939Z,35.63
2023-10-01T16:54:28.637Z,37.45
2023-10-01T16:59:33.367Z,35.95
2023-10-01T17:04:39.627Z,31.48
2023-10-01T17:09:42.506Z,35.50
2023-10-01T17:14:49.047Z,33.17
2023-10-01T17:19:52.283Z,29.65
2023-10-01T17:24:57.850Z,28.33
2023-10-01T17:30:19.183Z,27.35
2023-10-01T17:35:22.101Z,28.38
2023-10-01T17:40:25.806Z,27.40
2023-10-01T17:45:31.272Z,28.58
2023-10-01T17:50:34.796Z,25.02
2023-10-01T17:55:37.976Z,28.02
2023-10-01T18:00:43.373Z,22.05
2023-10-01T18:06:00.213Z,21.67
2023-10-01T18:11:11.929Z,22.90
2023-10-01T18:16:26.681Z,23.00
2023-10-01T18:21:30.170Z,22.42
2023-10-01T18:26:33.347Z,23.15
2023-10-01T18:31:38.280Z,19.15
2023-10-01T18:36:42.096Z,20.05
2023-10-01T18:41:45.799Z,20.88
2023-10-01T18:46:50.163Z,19.15
2023-10-01T18:51:54.211Z,21.05
2023-10-01T18:56:59.303Z,20.10
2023-10-01T19:02:03.664Z,18.95
2023-10-01T19:07:12.115Z,19.65
2023-10-01T19:12:15.449Z,18.70
2023-10-01T19:17:19.795Z,21.23
2023-10-01T19:22:34.676Z,18.15
2023-10-01T19:27:44.724Z,19.65
2023-10-01T19:32:49.366Z,16.58
2023-10-01T19:37:54.815Z,17.60
2023-10-01T19:43:01.067Z,17.35
2023-10-01T19:48:06.495Z,18.33
2023-10-01T19:53:17.096Z,17.50
2023-10-01T19:58:20.068Z,17.70
2023-10-01T20:03:25.251Z,15.98
2023-10-01T20:08:29.203Z,18.05
2023-10-01T20:13:32.633Z,17.98
2023-10-01T20:18:37.076Z,19.27
2023-10-01T20:23:41.721Z,14.15
2023-10-01T20:28:45.149Z,15.57
2023-10-01T20:33:53.742Z,19.23
2023-10-01T20:38:58.654Z,15.77
2023-10-01T20:44:03.440Z,15.95
2023-10-01T20:49:07.989Z,14.02
2023-10-01T20:54:14.831Z,11.60
2023-10-01T20:59:18.334Z,14.05
2023-10-01T21:04:26.112Z,19.65
2023-10-01T21:09:31.420Z,15.63
2023-10-01T21:14:37.911Z,16.35
2023-10-01T21:19:45.103Z,15.07
2023-10-01T21:24:48.297Z,15.15
2023-10-01T21:29:54.984Z,13.02
2023-10-01T21:34:59.989Z,15.50
2023-10-01T21:40:03.984Z,12.25
2023-10-01T21:45:40.917Z,13.13
2023-10-01T21:50:46.583Z,15.32
2023-10-01T21:55:49.620Z,15.38
2023-10-01T22:01:24.974Z,13.15
2023-10-01T22:06:30.906Z,12.30
2023-10-01T22:11:35.167Z,9.88
2023-10-01T22:16:44.945Z,12.25
2023-10-01T22:21:51.329Z,11.45
2023-10-01T22:26:57.024Z,13.27
2023-10-01T22:32:02.106Z,13.45
2023-10-01T22:37:11.184Z,12.00
2023-10-01T22:42:31.740Z,11.05
2023-10-01T22:47:38.362Z,10.20
2023-10-01T22:52:46.011Z,10.23
2023-10-01T22:57:51.050Z,11.70
2023-10-01T23:03:01.752Z,13.48
2023-10-01T23:08:08.045Z,9.05
2023-10-01T23:13:12.774Z,12.35
2023-10-01T23:18:19.622Z,10.85
2023-10-01T23:23:29.831Z,11.30
2023-10-01T23:28:34.811Z,10.70
2023-10-01T23:33:38.561Z,11.23
2023-10-01T23:38:57.023Z,9.90
2023-10-01T23:44:03.342Z,10.32
2023-10-01T23:49:12.502Z,7.57
2023-10-01T23:54:20.902Z,11.35
2023-10-01T23:59:31.371Z,8.90
